Wednesday, January 17, 2018, 9:46 PM GMT
Back to Local

CWNC, Cobourg, Ont.

Location: , , Canada Lat: 43.95
Local Time: 9:46 PM GMT (21:46 GMT) Lon: -78.167
Time Zone: GMT Elev: 255 ft

Show me the last for .
Show Coded

Time T Td Feel RH Dir Speed Gust Alt SLP Vis Weather Sky Remarks
2018-01-17 21:00 22 12 13 64 290° 7 - - 30.23 0 Peak wind: 21 mph (19 kts) from 260° at 00 min
2018-01-17 20:00 23 13 8 63 270° 14 22 - 30.25 0 Peak wind: 23 mph (20 kts) from 240° at 20 min
2018-01-17 19:00 23 12 6 62 270° 17 24 - 30.26 0 Peak wind: 26 mph (23 kts) from 280° at 30 min
2018-01-17 18:00 22 15 8 73 270° 10 17 - 30.29 0 Peak wind: 19 mph (17 kts) from 250° at 15 min
2018-01-17 17:00 22 15 11 72 260° 10 - - 30.32 0 None
2018-01-17 16:00 21 10 13 62 300° 6 - - 30.35 0 None
2018-01-17 15:00 19 11 11 69 310° 6 - - 30.36 0 None
2018-01-17 14:00 18 12 13 75 340° 3 - - 30.35 0 None
2018-01-17 13:00 19 13 13 77 330° 3 - - 30.34 0 None
2018-01-17 12:00 19 14 14 80 340° 3 - - 30.36 0 None
2018-01-17 11:00 20 14 13 78 330° 5 - - 30.36 0 None
2018-01-17 10:00 23 15 10 73 250° 15 - - 30.35 0 Peak wind: 24 mph (21 kts) from 250° at 16 min
2018-01-17 09:00 23 17 7 78 250° 17 23 - 30.36 0 Peak wind: 23 mph (20 kts) from 250° at 46 min
2018-01-17 08:00 23 18 8 80 260° 14 21 - 30.36 0 Peak wind: 25 mph (22 kts) from 240° at 17 min
2018-01-17 07:00 23 18 6 79 250° 18 28 - 30.36 0 Peak wind: 27 mph (24 kts) from 240° at 55 min
2018-01-17 06:00 21 18 15 87 310° 5 - - 30.36 0 1-hr Precip Total: 0.02"
2018-01-17 05:00 20 16 - 86 30° 2 - - 30.37 0 1-hr Precip Total: 0.01"
2018-01-17 04:00 19 15 - 82 70° 2 - - 30.38 0 1-hr Precip Total: 0.01"
2018-01-17 03:00 19 14 - 79 70° 2 - - 30.38 0 None
2018-01-17 02:00 19 13 14 77 60° 3 - - 30.38 0 None
2018-01-17 01:00 18 15 - 86 80° 2 - - 30.38 0 None
2018-01-17 00:00 18 13 11 81 30° 5 - - 30.38 0 None
2018-01-16 23:00 18 13 11 80 40° 5 - - 30.38 0 None
2018-01-16 22:00 22 15 - 73 350° 2 - - 30.37 0 None

Support USWX by starting your Amazon purchase here.